Nearby METAR Reports

 

KIAG - Niagara Falls, New York, USA
Distance from station: W 12mi, 20km
Updated: 11/26/2022 3:53pm
Clear
Clear
 Wind from SW
Wind: SW 24 mph , 39 km/h, Gust: 37 mph , 59 km/h
Temperature: 50°F , 10°C
Wind Chill: 43°F , 6°C
Dew Point: 30°F , -1°C
Humidity: 47%
Barometer: 1013.2 hPa
Clouds: Clear
Visibility: 10 miles , 16 km
2022/11/26 20:53 KIAG 262053Z 23021G32KT 10SM CLR 10/M01 A2992 RMK AO2 PK WND 22034/2011 SLP140 T01001011 56013
KBUF - Buffalo/Cheektow, New York, USA
Distance from station: S 13mi, 21km
Updated: 11/26/2022 3:54pm
Few Clouds
Few Clouds
 Wind from SW
Wind: SW 21 mph , 33 km/h, Gust: 32 mph , 52 km/h
Temperature: 50°F , 10°C
Wind Chill: 43°F , 6°C
Dew Point: 27°F , -3°C
Humidity: 40%
Barometer: 1013.2 hPa
Clouds: Few Clouds
Visibility: 10 miles , 16 km
Cloud details: Few Clouds 22000 ft
2022/11/26 20:54 KBUF 262054Z 23018G28KT 10SM FEW220 10/M03 A2992 RMK AO2 PK WND 23028/2031 SLP137 T01001028 56020
 
KROC - Rochester, New York, USA
Distance from station: E 51mi, 82km
Updated: 11/26/2022 3:54pm
Few Clouds
Few Clouds
 Wind from WSW
Wind: WSW 21 mph , 33 km/h, Gust: 28 mph , 44 km/h
Temperature: 54°F , 12°C
Dew Point: 25°F , -4°C
Humidity: 33%
Barometer: 1012.5 hPa
Clouds: Few Clouds
Visibility: 10 miles , 16 km
Cloud details: Few Clouds 22000 ft
2022/11/26 20:54 KROC 262054Z 24018G24KT 10SM FEW220 12/M04 A2990 RMK AO2 PK WND 25030/2029 SLP131 T01171039 56015
CYSN - St. Catharines A, Ontario, Canada
Distance from station: WNW 25mi, 40km
Updated: 11/26/2022 4:00pm
Clear
Clear
 Wind from SW
Wind: SW 24 mph , 39 km/h, Gust: 33 mph , 54 km/h
Temperature: 50°F , 10°C
Wind Chill: 43°F , 6°C
Dew Point: 30°F , -1°C
Humidity: 47%
Barometer: 1012.5 hPa
Clouds: Clear
Visibility: 15 miles , 24 km
2022/11/26 21:00 CYSN 262100Z 22021G29KT 15SM SKC 10/M01 A2990 RMK SLP129
 
KOLE - Olean, New York, USA
Distance from station: SSE 63mi, 102km
Updated: 11/26/2022 4:35pm
Clear
Clear
 Wind from SW
Wind: SW 7 mph , 11 km/h
Temperature: 45°F , 7°C
Wind Chill: 41°F , 5°C
Dew Point: 21°F , -6°C
Humidity: 39%
Barometer: 1014.2 hPa
Clouds: Clear
Visibility: 10 miles , 16 km
2022/11/26 21:35 KOLE 262135Z AUTO 23006KT 10SM CLR 07/M06 A2995 RMK AO2
KJHW - Jamestown, New York, USA
Distance from station: SSW 74mi, 119km
Updated: 11/26/2022 3:56pm
Clear
Clear
 Wind from SW
Wind: SW 10 mph , 17 km/h
Temperature: 48°F , 9°C
Wind Chill: 44°F , 7°C
Dew Point: 25°F , -4°C
Humidity: 40%
Barometer: 1015.2 hPa
Clouds: Clear
Visibility: 10 miles , 16 km
2022/11/26 20:56 KJHW 262056Z AUTO 22009KT 10SM CLR 09/M04 A2998 RMK AO2 SLP170 T00941039 56016
 
CWWZ - Port Weller (mar, Ontario, Canada
Distance from station: WNW 28mi, 45km
Updated: 11/26/2022 4:00pm

 Wind from SSW
Wind: SSW 18 mph , 30 km/h, Gust: 30 mph , 48 km/h
Temperature: 50°F , 10°C
Wind Chill: 44°F , 7°C
Dew Point: 34°F , 1°C
Humidity: 54%
2022/11/26 21:00 CWWZ 262100Z AUTO 21016G26KT 10/01 RMK AO1 PK WND 20027/2042 SLP125 T00980010 56015
CWPC - Port Colborne(Au, Ontario, Canada
Distance from station: WSW 33mi, 53km
Updated: 11/26/2022 4:00pm

 Wind from WSW
Wind: WSW 25 mph , 41 km/h
Temperature: 50°F , 10°C
Wind Chill: 43°F , 6°C
Dew Point: 36°F , 2°C
Humidity: 58%
2022/11/26 21:00 CWPC 262100Z AUTO 24022KT 10/02 RMK AO1 PK WND 25028/2049 SLP150 T00950018 56018
 
CXVN - Vineland (au8), Ontario, Canada
Distance from station: W 36mi, 58km
Updated: 11/26/2022 4:00pm

 Wind from SSW
Wind: SSW 22 mph , 35 km/h, Gust: 32 mph , 52 km/h
Temperature: 50°F , 10°C
Wind Chill: 43°F , 6°C
Dew Point: 34°F , 1°C
Humidity: 54%
2022/11/26 21:00 CXVN 262100Z AUTO 21019G28KT 10/01 RMK AO1 PK WND 21029/2025 SLP127 T00980006 56014
CYTZ - Toronto Il Vor, Ontario, Canada
Distance from station: NW 50mi, 81km
Updated: 11/26/2022 4:00pm
Clear
Clear
 Wind from SSW
Wind: SSW 20 mph , 31 km/h
Temperature: 46°F , 8°C
Wind Chill: 38°F , 3°C
Dew Point: 39°F , 4°C
Humidity: 76%
Barometer: 1011.2 hPa
Clouds: Clear
Visibility: 9 miles , 14 km
2022/11/26 21:00 CYTZ 262100Z AUTO 21017KT 9SM CLR 08/04 A2986 RMK SLP117
 
CXTO - Toronto City, Ontario, Canada
Distance from station: NW 52mi, 84km
Updated: 11/26/2022 4:00pm

 
Temperature: 50°F , 10°C
Dew Point: 36°F , 2°C
Humidity: 58%
2022/11/26 21:00 CXTO 262100Z AUTO 10/02 RMK AO1 SLP115 T00960023 56013
KDKK - Dunkirk, New York, USA
Distance from station: SW 52mi, 84km
Updated: 11/26/2022 3:53pm
Clear
Clear
 Wind from SSW
Wind: SSW 10 mph , 17 km/h
Temperature: 55°F , 13°C
Dew Point: 27°F , -3°C
Humidity: 33%
Barometer: 1014.9 hPa
Clouds: Clear
Visibility: 10 miles , 16 km
2022/11/26 20:53 KDKK 262053Z AUTO 21009KT 10SM CLR 13/M03 A2997 RMK AO2 SLP150 T01281028 56016 $
 
CYOO - Oshawa, Ontario, Canada
Distance from station: N 56mi, 90km
Updated: 11/26/2022 4:00pm
Clear
Clear
 Wind from SW
Wind: SW 15 mph , 24 km/h, Gust: 25 mph , 41 km/h
Temperature: 48°F , 9°C
Wind Chill: 42°F , 6°C
Dew Point: 37°F , 3°C
Humidity: 66%
Barometer: 1010.8 hPa
Clouds: Clear
Visibility: 9 miles , 14 km
2022/11/26 21:00 CYOO 262100Z AUTO 23013G22KT 9SM CLR 09/03 A2985 RMK SLP113
CWWB - Burlington Piers, Ontario, Canada
Distance from station: WNW 56mi, 91km
Updated: 11/26/2022 4:00pm

 Wind from SSW
Wind: SSW 14 mph , 22 km/h, Gust: 20 mph , 31 km/h
Temperature: 52°F , 11°C
Dew Point: 34°F , 1°C
Humidity: 50%
2022/11/26 21:00 CWWB 262100Z AUTO 20012G17KT 11/01 RMK AO1 PK WND 20020/2027 SLP126 T01100008 55010
 
CYYZ - Toronto/Pearson, Ontario, Canada
Distance from station: NW 60mi, 96km
Updated: 11/26/2022 4:00pm
Clear
Clear
 Wind from SSW
Wind: SSW 17 mph , 28 km/h
Temperature: 54°F , 12°C
Dew Point: 30°F , -1°C
Humidity: 41%
Barometer: 1011.2 hPa
Clouds: Clear
Visibility: 15 miles , 24 km
2022/11/26 21:00 CYYZ 262100Z 21015KT 15SM SKC 12/M01 A2986 RMK SLP119
CYKZ - Toronto Buttonvi, Ontario, Canada
Distance from station: NW 62mi, 99km
Updated: 01/03/2019 4:00am
NOT Current
Partly cloudy
Partly cloudy
 Wind from WSW
Wind: WSW 5 mph , 7 km/h
Temperature: 27°F , -3°C
Wind Chill: 21°F , -6°C
Dew Point: 23°F , -5°C
Humidity: 86%
Barometer: 1010.8 hPa
Clouds: Partly cloudy
Visibility: 15 miles , 24 km
Cloud details: Partly cloudy 4000 ft
2019/01/03 09:00 CYKZ 030900Z 25004KT 15SM SCT040 M03/M05 A2985 RMK SC3 LAST STFD OBS FAREWELL SLP118
 
CXHM - Hamilton Rbg Cs, Ontario, Canada
Distance from station: W 62mi, 100km
Updated: 11/26/2022 4:00pm

 Wind from WSW
Wind: WSW 9 mph , 15 km/h
Temperature: 52°F , 11°C
Dew Point: 34°F , 1°C
Humidity: 50%
2022/11/26 21:00 CXHM 262100Z AUTO 24008KT 11/01 RMK AO1 PK WND 23017/2003 SLP127 T01060012 55010
KDSV - Dansville, New York, USA
Distance from station: SE 62mi, 100km
Updated: 11/26/2022 3:54pm
Clear
Clear
 Wind from calm
Wind: Calm
Temperature: 57°F , 14°C
Dew Point: 19°F , -7°C
Humidity: 23%
Barometer: 1013.9 hPa
Clouds: Clear
Visibility: 10 miles , 16 km
2022/11/26 20:54 KDSV 262054Z AUTO 00000KT 10SM CLR 14/M07 A2994 RMK AO2 SLP150 T01441072 56019
 
CYHM - Hamilton Airport, Ontario, Canada
Distance from station: W 63mi, 101km
Updated: 11/26/2022 4:00pm
Few Clouds
Few Clouds
 Wind from SW
Wind: SW 15 mph , 24 km/h, Gust: 28 mph , 44 km/h
Temperature: 48°F , 9°C
Wind Chill: 42°F , 6°C
Dew Point: 34°F , 1°C
Humidity: 58%
Barometer: 1012.2 hPa
Clouds: Few Clouds
Visibility: 15 miles , 24 km
Cloud details: Few Clouds 25000 ft
2022/11/26 21:00 CYHM 262100Z 22013G24KT 15SM FEW250 09/01 A2989 RMK CI1 CI TR SLP132
CWNC - Cobourg (mars), Ontario, Canada
Distance from station: NNE 63mi, 102km
Updated: 11/26/2022 4:00pm

 Wind from W
Wind: W 9 mph , 15 km/h
Temperature: 45°F , 7°C
Wind Chill: 40°F , 4°C
Dew Point: 39°F , 4°C
Humidity: 81%
2022/11/26 21:00 CWNC 262100Z AUTO 27008KT 07/04 RMK AO1 SLP111 T00710039 56012